createdAt,value
2019-05-05T00:01:11.814Z,14.19
2019-05-05T00:03:44.974Z,14.21
2019-05-05T00:06:14.659Z,14.33
2019-05-05T00:08:45.716Z,14.22
2019-05-05T00:11:16.540Z,14.27
2019-05-05T00:13:47.158Z,14.27
2019-05-05T00:16:20.197Z,14.31
2019-05-05T00:18:49.316Z,14.27
2019-05-05T00:21:18.069Z,14.29
2019-05-05T00:23:52.571Z,14.11
2019-05-05T00:26:21.216Z,14.15
2019-05-05T00:28:49.874Z,14.18
2019-05-05T00:31:18.638Z,14.09
2019-05-05T00:33:47.364Z,14.16
2019-05-05T00:36:16.047Z,14.26
2019-05-05T00:38:44.721Z,14.22
2019-05-05T00:41:14.868Z,14.13
2019-05-05T00:43:45.098Z,14.17
2019-05-05T00:46:21.698Z,14.12
2019-05-05T00:48:50.429Z,14.03
2019-05-05T00:51:19.530Z,13.98
2019-05-05T00:53:48.270Z,13.93
2019-05-05T00:56:16.938Z,13.98
2019-05-05T00:58:55.171Z,13.92
2019-05-05T01:01:41.599Z,13.94
2019-05-05T01:04:11.884Z,14.12
2019-05-05T01:06:42.170Z,14.15
2019-05-05T01:09:14.773Z,14.10
2019-05-05T01:11:45.516Z,14.22
2019-05-05T01:14:14.498Z,14.27
2019-05-05T01:16:45.502Z,14.15
2019-05-05T01:19:14.984Z,14.10
2019-05-05T01:21:45.428Z,14.08
2019-05-05T01:24:14.472Z,13.96
2019-05-05T01:26:50.894Z,13.99
2019-05-05T01:29:19.674Z,14.04
2019-05-05T01:31:48.316Z,14.01
2019-05-05T01:34:24.686Z,14.03
2019-05-05T01:36:54.980Z,13.96
2019-05-05T01:39:25.328Z,13.96
2019-05-05T01:41:58.362Z,13.95
2019-05-05T01:44:27.891Z,13.96
2019-05-05T01:46:56.648Z,14.02
2019-05-05T01:49:25.597Z,14.02
2019-05-05T01:51:55.262Z,14.08
2019-05-05T01:54:25.009Z,14.05
2019-05-05T01:56:55.435Z,14.06
2019-05-05T01:59:25.372Z,14.01
2019-05-05T02:01:55.127Z,14.07
2019-05-05T02:04:25.487Z,14.01
2019-05-05T02:06:55.103Z,14.01
2019-05-05T02:09:24.953Z,13.98
2019-05-05T02:11:54.863Z,14.09
2019-05-05T02:14:24.727Z,14.04
2019-05-05T02:16:54.712Z,13.96
2019-05-05T02:22:06.625Z,14.21
2019-05-05T02:24:35.472Z,14.15
2019-05-05T02:27:05.137Z,14.23
2019-05-05T02:29:38.558Z,14.30
2019-05-05T02:32:17.976Z,14.36
2019-05-05T02:34:56.319Z,14.42
2019-05-05T02:37:25.607Z,14.17
2019-05-05T02:39:58.931Z,14.31
2019-05-05T02:42:27.255Z,14.26
2019-05-05T02:44:58.812Z,14.26
2019-05-05T02:47:34.673Z,14.09
2019-05-05T02:50:07.590Z,14.04
2019-05-05T02:52:40.566Z,14.33
2019-05-05T02:55:11.230Z,14.32
2019-05-05T02:57:45.602Z,14.47
2019-05-05T03:00:15.975Z,14.23
2019-05-05T03:02:44.679Z,14.12
2019-05-05T03:05:14.249Z,14.31
2019-05-05T03:07:43.828Z,14.26
2019-05-05T03:10:14.127Z,14.53
2019-05-05T03:12:44.063Z,14.43
2019-05-05T03:15:15.690Z,14.42
2019-05-05T03:17:44.637Z,14.29
2019-05-05T03:20:14.516Z,14.02
2019-05-05T03:22:43.590Z,14.10
2019-05-05T03:25:13.611Z,14.10
2019-05-05T03:27:44.534Z,14.16
2019-05-05T03:30:15.393Z,14.03
2019-05-05T03:32:45.580Z,14.20
2019-05-05T03:35:14.360Z,14.01
2019-05-05T03:37:44.596Z,14.08
2019-05-05T03:40:15.266Z,14.11
2019-05-05T03:42:45.724Z,14.12
2019-05-05T03:45:16.370Z,13.84
2019-05-05T03:47:45.442Z,13.80
2019-05-05T03:50:14.744Z,13.95
2019-05-05T03:52:44.931Z,13.90
2019-05-05T03:55:13.930Z,14.04
2019-05-05T03:57:44.466Z,14.13
2019-05-05T04:00:15.488Z,13.67
2019-05-05T04:02:48.565Z,13.63
2019-05-05T04:05:30.738Z,13.48
2019-05-05T04:08:00.607Z,13.31
2019-05-05T04:10:29.412Z,13.06
2019-05-05T04:12:58.484Z,13.02
2019-05-05T04:15:27.744Z,12.98
2019-05-05T04:17:57.966Z,12.96
2019-05-05T04:20:27.890Z,12.93
2019-05-05T04:22:58.145Z,12.94
2019-05-05T04:25:27.022Z,13.00
2019-05-05T04:27:55.767Z,13.07
2019-05-05T04:30:24.481Z,13.26
2019-05-05T04:32:54.639Z,13.34
2019-05-05T04:35:24.623Z,13.31
2019-05-05T04:37:54.213Z,13.19
2019-05-05T04:40:24.012Z,13.16
2019-05-05T04:42:54.625Z,13.10
2019-05-05T04:45:24.256Z,13.46
2019-05-05T04:47:54.913Z,13.53
2019-05-05T04:50:31.393Z,13.46
2019-05-05T04:53:01.691Z,13.42
2019-05-05T04:55:30.421Z,13.67
2019-05-05T04:57:59.223Z,13.80
2019-05-05T05:00:27.903Z,13.85
2019-05-05T05:02:58.219Z,13.75
2019-05-05T05:05:44.667Z,13.65
2019-05-05T05:08:13.982Z,13.53
2019-05-05T05:10:43.782Z,13.74
2019-05-05T05:13:13.899Z,13.64
2019-05-05T05:15:44.652Z,13.78
2019-05-05T05:18:15.202Z,13.77
2019-05-05T05:20:44.488Z,13.83
2019-05-05T05:23:14.269Z,13.75
2019-05-05T05:25:43.822Z,14.11
2019-05-05T05:28:14.342Z,13.82
2019-05-05T05:30:43.995Z,13.65
2019-05-05T05:33:14.929Z,13.68
2019-05-05T05:35:44.236Z,13.61
2019-05-05T05:38:14.027Z,13.60
2019-05-05T05:40:47.511Z,13.73
2019-05-05T05:43:33.941Z,13.67
2019-05-05T05:46:04.493Z,13.96
2019-05-05T05:48:40.771Z,13.87
2019-05-05T05:51:11.119Z,13.54
2019-05-05T05:53:40.320Z,13.58
2019-05-05T05:56:09.017Z,13.81
2019-05-05T05:58:37.770Z,14.07
2019-05-05T06:01:06.489Z,14.22
2019-05-05T06:03:35.209Z,13.94
2019-05-05T06:06:06.186Z,13.89
2019-05-05T06:08:34.909Z,13.88
2019-05-05T06:11:04.916Z,13.98
2019-05-05T06:13:33.842Z,14.09
2019-05-05T06:16:04.250Z,14.18
2019-05-05T06:18:34.609Z,14.75
2019-05-05T06:21:04.518Z,14.85
2019-05-05T06:23:34.437Z,14.72
2019-05-05T06:26:06.665Z,14.81
2019-05-05T06:28:34.342Z,14.69
2019-05-05T06:31:04.847Z,14.55
2019-05-05T06:33:34.724Z,14.58
2019-05-05T06:36:15.745Z,14.38
2019-05-05T06:38:43.557Z,14.39
2019-05-05T06:41:23.721Z,14.44
2019-05-05T06:44:00.271Z,14.51
2019-05-05T06:46:34.312Z,14.76
2019-05-05T06:49:04.343Z,14.96
2019-05-05T06:51:33.598Z,14.94
2019-05-05T06:54:04.493Z,15.07
2019-05-05T06:56:34.186Z,15.23
2019-05-05T06:59:04.396Z,15.60
2019-05-05T07:01:34.920Z,15.35
2019-05-05T07:04:05.576Z,15.33
2019-05-05T07:06:35.694Z,15.28
2019-05-05T07:09:05.636Z,15.53
2019-05-05T07:11:37.040Z,15.50
2019-05-05T07:14:05.762Z,15.43
2019-05-05T07:16:34.706Z,15.28
2019-05-05T07:19:04.363Z,15.41
2019-05-05T07:21:34.281Z,15.63
2019-05-05T07:24:03.947Z,15.56
2019-05-05T07:26:34.087Z,15.75
2019-05-05T07:29:04.711Z,15.74
2019-05-05T07:31:34.292Z,15.68
2019-05-05T07:34:13.686Z,15.91
2019-05-05T07:36:47.170Z,15.84
2019-05-05T07:39:16.014Z,15.80
2019-05-05T07:41:45.019Z,15.80
2019-05-05T07:44:25.732Z,15.94
2019-05-05T07:46:44.291Z,16.36
2019-05-05T07:49:13.873Z,16.81
2019-05-05T07:51:44.225Z,17.74
2019-05-05T07:54:14.564Z,17.45
2019-05-05T07:56:44.493Z,17.26
2019-05-05T07:59:14.602Z,18.35
2019-05-05T08:01:46.548Z,18.45
2019-05-05T08:04:14.246Z,18.26
2019-05-05T08:06:44.572Z,18.49
2019-05-05T08:09:14.577Z,18.30
2019-05-05T08:11:43.689Z,18.25
2019-05-05T08:14:14.593Z,18.42
2019-05-05T08:16:47.653Z,18.67
2019-05-05T08:19:21.186Z,18.01
2019-05-05T08:21:49.898Z,18.01
2019-05-05T08:24:28.966Z,17.73
2019-05-05T08:26:59.391Z,17.09
2019-05-05T08:29:34.591Z,17.31
2019-05-05T08:32:04.930Z,17.74
2019-05-05T08:34:34.021Z,17.68
2019-05-05T08:37:04.375Z,17.36
2019-05-05T08:39:35.464Z,17.58
2019-05-05T08:42:04.437Z,17.49
2019-05-05T08:44:34.257Z,17.68
2019-05-05T08:47:04.464Z,17.88
2019-05-05T08:49:34.754Z,17.89
2019-05-05T08:52:04.155Z,17.89
2019-05-05T08:54:34.411Z,17.96
2019-05-05T08:57:04.409Z,18.32
2019-05-05T08:59:36.097Z,18.35
2019-05-05T09:02:10.777Z,18.35
2019-05-05T09:04:38.559Z,17.93
2019-05-05T09:07:07.304Z,17.52
2019-05-05T09:09:35.982Z,17.76
2019-05-05T09:12:09.849Z,17.54
2019-05-05T09:14:39.821Z,17.43
2019-05-05T09:17:13.694Z,17.86
2019-05-05T09:19:44.886Z,18.24
2019-05-05T09:22:14.101Z,18.24
2019-05-05T09:24:53.750Z,18.48
2019-05-05T09:27:36.303Z,18.52
2019-05-05T09:30:08.097Z,18.39
2019-05-05T09:32:37.625Z,18.39
2019-05-05T09:35:07.461Z,18.30
2019-05-05T09:37:37.655Z,18.20
2019-05-05T09:40:09.745Z,18.19
2019-05-05T09:42:38.401Z,18.19
2019-05-05T09:45:10.329Z,17.91
2019-05-05T09:47:40.290Z,17.91
2019-05-05T09:50:09.453Z,17.67
2019-05-05T09:52:38.202Z,17.72
2019-05-05T09:55:07.754Z,17.58
2019-05-05T09:57:44.039Z,17.35
2019-05-05T10:00:17.567Z,17.47
2019-05-05T10:02:46.374Z,17.60
2019-05-05T10:05:15.304Z,17.80
2019-05-05T10:07:44.281Z,18.09
2019-05-05T10:10:13.853Z,18.09
2019-05-05T10:12:44.569Z,18.03
2019-05-05T10:15:14.008Z,17.89
2019-05-05T10:17:43.533Z,18.06
2019-05-05T10:20:14.529Z,17.80
2019-05-05T10:22:43.939Z,17.80
2019-05-05T10:25:34.329Z,17.73
2019-05-05T10:28:04.215Z,17.70
2019-05-05T10:30:33.649Z,17.61
2019-05-05T10:33:04.070Z,17.65
2019-05-05T10:35:34.503Z,17.69
2019-05-05T10:38:03.454Z,17.72
2019-05-05T10:40:33.967Z,17.87
2019-05-05T10:43:04.361Z,17.86
2019-05-05T10:45:33.673Z,17.73
2019-05-05T10:48:04.042Z,18.02
2019-05-05T10:50:34.290Z,18.31
2019-05-05T10:53:04.532Z,17.98
2019-05-05T10:55:34.610Z,18.35
2019-05-05T10:58:04.187Z,18.31
2019-05-05T11:00:41.222Z,18.31
2019-05-05T11:03:10.005Z,18.07
2019-05-05T11:05:38.963Z,18.01
2019-05-05T11:08:07.664Z,18.01
2019-05-05T11:10:36.416Z,18.02
2019-05-05T11:13:05.258Z,18.29
2019-05-05T11:15:33.916Z,18.29
2019-05-05T11:18:04.086Z,18.25
2019-05-05T11:20:34.043Z,18.17
2019-05-05T11:23:04.907Z,18.65
2019-05-05T11:25:33.838Z,18.76
2019-05-05T11:28:04.384Z,18.42
2019-05-05T11:30:36.298Z,18.52
2019-05-05T11:33:23.808Z,18.34
2019-05-05T11:35:54.387Z,18.40
2019-05-05T11:38:24.708Z,18.74
2019-05-05T11:40:54.723Z,19.30
2019-05-05T11:43:24.680Z,19.19
2019-05-05T11:45:54.385Z,19.46
2019-05-05T11:48:24.126Z,19.40
2019-05-05T11:50:54.044Z,18.94
2019-05-05T11:53:25.063Z,18.99
2019-05-05T11:55:54.893Z,18.82
2019-05-05T11:58:24.951Z,18.41
2019-05-05T12:00:54.698Z,18.34
2019-05-05T12:03:23.904Z,17.93
2019-05-05T12:05:53.843Z,17.79
2019-05-05T12:08:23.852Z,17.59
2019-05-05T12:10:57.803Z,18.23
2019-05-05T12:13:26.606Z,18.23
2019-05-05T12:16:04.583Z,18.48
2019-05-05T12:18:34.265Z,18.15
2019-05-05T12:21:05.161Z,18.46
2019-05-05T12:23:34.105Z,19.02
2019-05-05T12:26:16.871Z,19.02
2019-05-05T12:28:47.172Z,18.77
2019-05-05T12:31:26.681Z,18.27
2019-05-05T12:33:55.329Z,17.98
2019-05-05T12:36:23.984Z,17.98
2019-05-05T12:38:54.749Z,17.65
2019-05-05T12:41:23.987Z,17.65
2019-05-05T12:43:54.898Z,17.61
2019-05-05T12:46:36.916Z,17.48
2019-05-05T12:49:07.223Z,17.48
2019-05-05T12:51:35.913Z,17.74
2019-05-05T12:54:05.161Z,17.86
2019-05-05T12:56:34.198Z,17.88
2019-05-05T12:59:04.657Z,17.87
2019-05-05T13:01:37.860Z,17.76
2019-05-05T13:04:06.511Z,18.02
2019-05-05T13:06:35.316Z,18.39
2019-05-05T13:09:05.791Z,18.39
2019-05-05T13:11:34.518Z,18.30
2019-05-05T13:14:03.822Z,18.52
2019-05-05T13:16:32.775Z,18.00
2019-05-05T13:19:04.421Z,18.12
2019-05-05T13:21:51.123Z,18.27
2019-05-05T13:24:24.389Z,17.65
2019-05-05T13:26:54.825Z,17.65
2019-05-05T13:29:24.627Z,17.47
2019-05-05T13:31:54.386Z,17.82
2019-05-05T13:34:23.550Z,17.70
2019-05-05T13:36:52.252Z,17.89
2019-05-05T13:39:21.095Z,17.51
2019-05-05T13:41:49.766Z,18.05
2019-05-05T13:44:24.217Z,17.73
2019-05-05T13:46:53.682Z,17.96
2019-05-05T13:49:24.170Z,18.01
2019-05-05T13:51:54.047Z,18.01
2019-05-05T13:54:24.231Z,18.18
2019-05-05T13:56:53.226Z,18.19
2019-05-05T13:59:25.994Z,18.51
2019-05-05T14:01:54.695Z,17.72
2019-05-05T14:04:23.360Z,17.59
2019-05-05T14:06:52.060Z,17.50
2019-05-05T14:09:20.765Z,17.87
2019-05-05T14:11:49.422Z,17.60
2019-05-05T14:14:20.868Z,17.60
2019-05-05T14:16:49.652Z,17.81
2019-05-05T14:19:18.337Z,18.08
2019-05-05T14:21:47.207Z,18.31
2019-05-05T14:24:17.574Z,18.04
2019-05-05T14:26:46.652Z,17.78
2019-05-05T14:29:17.052Z,17.60
2019-05-05T14:31:45.796Z,17.30
2019-05-05T14:34:25.438Z,17.53
2019-05-05T14:37:11.844Z,18.01
2019-05-05T14:39:40.597Z,17.25
2019-05-05T14:42:09.325Z,17.29
2019-05-05T14:44:37.996Z,17.31
2019-05-05T14:47:06.874Z,17.63
2019-05-05T14:49:35.540Z,17.94
2019-05-05T14:52:04.504Z,17.78
2019-05-05T14:54:34.133Z,17.83
2019-05-05T14:57:04.549Z,17.92
2019-05-05T14:59:34.090Z,18.31
2019-05-05T15:02:04.190Z,18.37
2019-05-05T15:54:34.007Z,17.24
2019-05-05T15:57:06.328Z,17.28
2019-05-05T15:59:34.281Z,17.12
2019-05-05T16:02:06.944Z,16.97
2019-05-05T16:04:44.900Z,17.21
2019-05-05T16:07:13.962Z,17.12
2019-05-05T16:09:46.818Z,17.21
2019-05-05T16:12:14.720Z,16.99
2019-05-05T16:14:46.261Z,16.96
2019-05-05T16:17:25.516Z,16.91
2019-05-05T16:19:55.822Z,16.73
2019-05-05T16:22:35.366Z,16.86
2019-05-05T16:25:13.812Z,16.87
2019-05-05T16:27:44.650Z,17.24
2019-05-05T16:30:15.854Z,17.00
2019-05-05T16:32:44.538Z,16.79
2019-05-05T16:35:14.992Z,16.90
2019-05-05T16:37:43.607Z,16.70
2019-05-05T16:40:14.478Z,16.95
2019-05-05T16:42:43.725Z,16.79
2019-05-05T16:45:16.180Z,16.77
2019-05-05T16:47:44.455Z,17.10
2019-05-05T16:50:13.653Z,16.77
2019-05-05T16:52:46.099Z,16.62
2019-05-05T16:55:34.510Z,16.41
2019-05-05T16:58:04.043Z,16.35
2019-05-05T17:00:34.594Z,16.25
2019-05-05T17:03:04.213Z,16.43
2019-05-05T17:05:34.625Z,16.34
2019-05-05T17:08:04.492Z,16.35
2019-05-05T17:10:34.216Z,16.15
2019-05-05T17:13:04.709Z,16.17
2019-05-05T17:15:37.801Z,16.20
2019-05-05T17:18:35.222Z,16.21
2019-05-05T17:20:58.408Z,16.23
2019-05-05T17:23:27.090Z,16.25
2019-05-05T17:25:55.849Z,16.21
2019-05-05T17:28:24.691Z,16.34
2019-05-05T17:30:54.313Z,16.56
2019-05-05T17:33:24.129Z,16.72
2019-05-05T17:35:53.947Z,16.55
2019-05-05T17:38:24.410Z,16.47
2019-05-05T17:43:40.257Z,16.54
2019-05-05T17:46:10.548Z,16.53
2019-05-05T17:48:49.651Z,16.53
2019-05-05T17:51:32.159Z,16.74
2019-05-05T17:54:05.419Z,16.90
2019-05-05T17:56:34.065Z,16.41
2019-05-05T17:59:03.453Z,16.29
2019-05-05T18:01:34.830Z,16.06
2019-05-05T18:04:05.836Z,15.75
2019-05-05T18:06:45.363Z,15.52
2019-05-05T18:09:18.357Z,15.57
2019-05-05T18:11:57.672Z,15.67
2019-05-05T18:14:30.885Z,16.11
2019-05-05T18:16:59.570Z,15.75
2019-05-05T18:19:29.755Z,15.77
2019-05-05T18:21:58.405Z,15.44
2019-05-05T18:24:27.050Z,15.37
2019-05-05T18:27:04.544Z,15.36
2019-05-05T18:29:35.141Z,15.22
2019-05-05T18:32:04.335Z,15.08
2019-05-05T18:34:33.434Z,15.10
2019-05-05T18:37:03.756Z,15.06
2019-05-05T18:39:36.894Z,15.15
2019-05-05T18:42:07.239Z,15.19
2019-05-05T18:44:49.802Z,15.18
2019-05-05T18:47:21.892Z,15.13
2019-05-05T18:49:53.819Z,15.10
2019-05-05T18:52:28.656Z,15.11
2019-05-05T18:54:57.519Z,15.01
2019-05-05T18:57:27.546Z,15.09
2019-05-05T18:59:56.132Z,15.14
2019-05-05T19:02:41.817Z,15.11
2019-05-05T19:05:24.139Z,15.02
2019-05-05T19:08:05.651Z,14.90
2019-05-05T19:10:35.385Z,14.86
2019-05-05T19:13:04.135Z,14.82
2019-05-05T19:15:34.426Z,14.77
2019-05-05T19:18:04.358Z,14.84
2019-05-05T19:20:38.089Z,14.86
2019-05-05T19:23:06.671Z,14.86
2019-05-05T19:25:35.891Z,14.90
2019-05-05T19:28:06.589Z,14.83
2019-05-05T19:30:36.124Z,14.78
2019-05-05T19:33:24.628Z,14.78
2019-05-05T19:35:56.497Z,14.87
2019-05-05T19:38:25.160Z,15.09
2019-05-05T19:40:56.099Z,14.97
2019-05-05T19:43:26.357Z,14.93
2019-05-05T19:45:55.290Z,15.01
2019-05-05T19:48:24.565Z,15.09
2019-05-05T19:50:55.175Z,15.10
2019-05-05T19:53:25.458Z,15.20
2019-05-05T19:55:55.649Z,15.27
2019-05-05T19:58:24.554Z,15.01
2019-05-05T20:00:56.507Z,15.11
2019-05-05T20:03:25.356Z,15.31
2019-05-05T20:05:57.900Z,15.00
2019-05-05T20:08:39.925Z,14.87
2019-05-05T20:10:56.757Z,15.04
2019-05-05T20:13:25.433Z,14.99
2019-05-05T20:16:04.924Z,15.12
2019-05-05T20:18:35.249Z,14.90
2019-05-05T20:21:07.028Z,14.87
2019-05-05T20:23:34.592Z,14.82
2019-05-05T20:26:04.036Z,14.98
2019-05-05T20:28:34.347Z,15.13
2019-05-05T20:31:03.583Z,15.03
2019-05-05T20:33:39.875Z,14.87
2019-05-05T20:36:17.375Z,14.91
2019-05-05T20:38:47.702Z,14.94
2019-05-05T20:41:17.943Z,15.21
2019-05-05T20:43:46.653Z,15.29
2019-05-05T20:46:15.397Z,14.99
2019-05-05T20:48:44.841Z,14.97
2019-05-05T20:51:14.009Z,14.86
2019-05-05T20:53:44.773Z,14.87
2019-05-05T20:56:14.967Z,14.84
2019-05-05T20:58:44.988Z,15.00
2019-05-05T21:01:15.075Z,14.94
2019-05-05T21:03:43.652Z,14.93
2019-05-05T21:06:13.870Z,14.98
2019-05-05T21:08:44.300Z,15.00
2019-05-05T21:11:14.576Z,15.23
2019-05-05T21:13:45.044Z,15.27
2019-05-05T21:16:14.229Z,15.22
2019-05-05T21:18:42.971Z,15.06
2019-05-05T21:21:13.908Z,14.98
2019-05-05T21:23:44.500Z,15.00
2019-05-05T21:26:14.778Z,15.14
2019-05-05T21:28:44.458Z,15.04
2019-05-05T21:31:14.473Z,14.81
2019-05-05T21:33:45.165Z,14.86
2019-05-05T21:36:16.703Z,15.07
2019-05-05T21:38:45.401Z,15.14
2019-05-05T21:41:14.006Z,15.28
2019-05-05T21:43:44.681Z,15.44
2019-05-05T21:46:14.749Z,15.09
2019-05-05T21:48:44.863Z,14.86
2019-05-05T21:51:28.744Z,14.94
2019-05-05T21:53:59.018Z,15.45
2019-05-05T21:56:44.112Z,15.44
2019-05-05T21:59:14.180Z,15.09
2019-05-05T22:01:49.403Z,15.25
2019-05-05T22:04:15.104Z,14.95
2019-05-05T22:06:44.028Z,15.03
2019-05-05T22:09:20.036Z,14.98
2019-05-05T22:11:48.771Z,15.11
2019-05-05T22:14:21.767Z,14.97
2019-05-05T22:16:54.348Z,15.10
2019-05-05T22:19:25.128Z,14.93
2019-05-05T22:22:01.455Z,14.89
2019-05-05T22:24:30.293Z,14.63
2019-05-05T22:26:58.943Z,14.67
2019-05-05T22:29:29.099Z,15.01
2019-05-05T22:31:57.769Z,14.72
2019-05-05T22:34:33.399Z,14.70
2019-05-05T22:37:05.759Z,14.79
2019-05-05T22:39:33.839Z,14.84
2019-05-05T22:42:04.589Z,15.17
2019-05-05T22:44:33.894Z,15.14
2019-05-05T22:47:06.599Z,15.14
2019-05-05T22:49:35.171Z,15.00
2019-05-05T22:52:05.091Z,14.53
2019-05-05T22:54:33.815Z,14.37
2019-05-05T22:57:04.452Z,14.28
2019-05-05T22:59:32.873Z,14.53
2019-05-05T23:02:04.043Z,14.64
2019-05-05T23:04:40.308Z,14.55
2019-05-05T23:07:10.577Z,14.36
2019-05-05T23:09:39.209Z,14.28
2019-05-05T23:12:07.960Z,14.07
2019-05-05T23:14:36.608Z,14.07
2019-05-05T23:17:19.065Z,14.18
2019-05-05T23:20:05.621Z,14.12
2019-05-05T23:22:44.061Z,14.22
2019-05-05T23:25:14.541Z,14.32
2019-05-05T23:27:54.574Z,14.44
2019-05-05T23:30:25.142Z,14.63
2019-05-05T23:32:54.880Z,14.55
2019-05-05T23:35:24.123Z,14.48
2019-05-05T23:37:55.073Z,14.21
2019-05-05T23:40:27.525Z,14.40
2019-05-05T23:42:56.179Z,14.47
2019-05-05T23:45:25.219Z,14.25
2019-05-05T23:47:54.677Z,14.22
2019-05-05T23:50:24.226Z,14.18
2019-05-05T23:52:54.577Z,14.26
2019-05-05T23:55:24.089Z,14.16
2019-05-05T23:57:54.709Z,14.17
